Time;durP1;ratioP1;P1;durP2;ratioP2;P2;SDS_P1;SDS_P2;PMS_P1;PMS_P2;Temp;Humidity;BMP_temperature;BMP_pressure;BME280_temperature;BME280_humidity;BME280_pressure;Samples;Min_cycle;Max_cycle;Signal;HPM_P1;HPM_P2
2022/04/13 00:00:49;;;;;;;2.63;1.90;;;10.90;99.90;;;;;;5052834;28;20206;-53
2022/04/13 00:03:18;;;;;;;5.47;2.60;;;11.00;99.90;;;;;;5052481;28;20233;-52
2022/04/13 00:05:48;;;;;;;3.40;1.97;;;11.00;99.90;;;;;;5053663;28;20346;-52
2022/04/13 00:08:17;;;;;;;2.23;1.80;;;11.00;99.90;;;;;;5053562;28;20278;-52
2022/04/13 00:10:45;;;;;;;3.20;1.90;;;11.00;99.90;;;;;;5052802;28;20205;-52
2022/04/13 00:13:13;;;;;;;2.93;2.20;;;11.00;99.90;;;;;;5052440;28;20255;-52
2022/04/13 00:15:42;;;;;;;2.73;1.73;;;11.00;99.90;;;;;;5053124;28;20846;-52
2022/04/13 00:18:11;;;;;;;3.37;2.07;;;11.10;99.90;;;;;;5053254;28;20225;-52
2022/04/13 00:20:39;;;;;;;2.80;2.00;;;11.10;99.90;;;;;;5052873;28;20213;-52
2022/04/13 00:23:08;;;;;;;2.60;1.93;;;11.10;99.90;;;;;;5052403;28;20271;-52
2022/04/13 00:25:38;;;;;;;4.33;1.87;;;11.10;99.90;;;;;;5053343;28;20225;-51
2022/04/13 00:28:07;;;;;;;2.47;1.80;;;11.10;99.90;;;;;;5053080;28;20240;-53
2022/04/13 00:30:35;;;;;;;2.03;1.80;;;11.10;99.90;;;;;;5052938;28;20740;-52
2022/04/13 00:33:04;;;;;;;3.17;2.20;;;11.10;99.90;;;;;;5052342;28;20221;-52
2022/04/13 00:35:32;;;;;;;3.73;2.33;;;11.10;99.90;;;;;;5051495;28;20624;-52
2022/04/13 00:38:00;;;;;;;3.37;2.03;;;11.20;99.90;;;;;;5032816;28;20590;-52
2022/04/13 00:40:29;;;;;;;4.73;2.00;;;11.20;99.90;;;;;;5032416;28;20683;-53
2022/04/13 00:42:57;;;;;;;2.17;1.90;;;11.20;99.90;;;;;;5031973;28;20227;-52
2022/04/13 00:45:26;;;;;;;2.77;1.87;;;11.20;99.90;;;;;;5032182;28;20229;-52
2022/04/13 00:47:55;;;;;;;3.17;2.20;;;11.20;99.90;;;;;;5032853;28;20260;-52
2022/04/13 00:50:24;;;;;;;2.97;1.80;;;11.20;99.90;;;;;;5032724;28;20624;-52
2022/04/13 00:52:53;;;;;;;2.87;1.93;;;11.20;99.90;;;;;;5031811;28;20718;-52
2022/04/13 00:55:24;;;;;;;2.53;2.07;;;11.20;99.90;;;;;;5045195;28;20578;-52
2022/04/13 00:57:57;;;;;;;2.67;1.90;;;11.20;99.90;;;;;;5053365;28;20605;-52
2022/04/13 01:00:25;;;;;;;2.67;1.90;;;11.20;99.90;;;;;;5052054;28;20621;-51
2022/04/13 01:02:55;;;;;;;3.47;1.97;;;11.20;99.90;;;;;;5052304;28;20573;-52
2022/04/13 01:05:24;;;;;;;5.10;1.90;;;11.20;99.90;;;;;;5052302;28;20201;-52
2022/04/13 01:07:54;;;;;;;2.57;1.93;;;11.20;99.90;;;;;;5032956;28;20221;-52
2022/04/13 01:10:24;;;;;;;4.93;1.90;;;11.20;99.90;;;;;;5032434;28;20249;-52
2022/04/13 01:12:53;;;;;;;2.23;1.80;;;11.20;99.90;;;;;;5032045;28;20245;-52
2022/04/13 01:15:22;;;;;;;4.00;1.67;;;11.20;99.90;;;;;;5032978;28;20305;-52
2022/04/13 01:17:50;;;;;;;2.73;2.10;;;11.20;99.90;;;;;;5033078;28;20291;-52
2022/04/13 01:20:22;;;;;;;3.20;1.80;;;11.20;99.90;;;;;;5035394;28;20210;-52
2022/04/13 01:22:51;;;;;;;1.90;1.70;;;11.20;99.90;;;;;;5052295;28;20287;-51
2022/04/13 01:25:19;;;;;;;3.43;2.00;;;11.20;99.90;;;;;;5052420;28;20209;-51
2022/04/13 01:27:47;;;;;;;3.60;1.80;;;11.20;99.90;;;;;;5052429;28;20631;-51
2022/04/13 01:30:15;;;;;;;3.70;1.87;;;11.10;99.90;;;;;;5051062;28;20206;-52
2022/04/13 01:32:44;;;;;;;4.70;2.40;;;11.10;99.90;;;;;;5052126;28;20322;-52
2022/04/13 01:35:12;;;;;;;2.67;1.90;;;11.10;99.90;;;;;;5051792;28;20223;-52
2022/04/13 01:37:40;;;;;;;2.23;1.60;;;11.00;99.90;;;;;;5052294;28;20259;-52
2022/04/13 01:40:11;;;;;;;2.93;1.90;;;11.00;99.90;;;;;;5051826;28;20256;-52
2022/04/13 01:42:39;;;;;;;2.43;1.90;;;10.90;99.90;;;;;;5051343;28;20302;-52
2022/04/13 01:45:08;;;;;;;2.57;2.10;;;10.90;99.90;;;;;;5051594;28;20209;-51
2022/04/13 01:47:36;;;;;;;2.87;1.90;;;10.90;99.90;;;;;;5051878;28;20271;-52
2022/04/13 01:50:05;;;;;;;4.30;2.07;;;10.90;99.90;;;;;;5051998;28;20213;-52
2022/04/13 01:52:33;;;;;;;5.13;2.07;;;10.90;99.90;;;;;;5049932;28;20226;-53
2022/04/13 01:55:01;;;;;;;2.73;1.73;;;10.80;99.90;;;;;;5051643;28;20206;-50
2022/04/13 01:57:31;;;;;;;2.43;1.87;;;10.80;99.90;;;;;;5051586;28;20283;-52
2022/04/13 01:59:59;;;;;;;2.07;1.83;;;10.80;99.90;;;;;;5051591;28;20232;-52
2022/04/13 02:02:27;;;;;;;2.13;1.87;;;10.70;99.90;;;;;;5050930;28;20237;-54
2022/04/13 02:04:55;;;;;;;2.27;1.83;;;10.70;99.90;;;;;;5050915;28;20659;-52
2022/04/13 02:07:23;;;;;;;2.40;1.87;;;10.70;99.90;;;;;;5050740;28;20221;-53
2022/04/13 02:09:51;;;;;;;4.03;2.07;;;10.70;99.90;;;;;;5050940;28;20260;-52
2022/04/13 02:12:20;;;;;;;2.80;1.77;;;10.70;99.90;;;;;;5051041;28;20226;-52
2022/04/13 02:14:50;;;;;;;3.67;2.10;;;10.70;99.90;;;;;;5050649;28;20210;-52
2022/04/13 02:17:19;;;;;;;3.87;2.03;;;10.70;99.90;;;;;;5051559;28;20243;-52
2022/04/13 02:19:48;;;;;;;3.27;2.07;;;10.70;99.90;;;;;;5051116;28;20271;-52
2022/04/13 02:22:16;;;;;;;3.07;2.10;;;10.60;99.90;;;;;;5033332;28;20221;-52
2022/04/13 02:25:06;;;;;;;2.53;1.90;;;10.60;99.90;;;;;;5031001;28;20246;-51
2022/04/13 02:27:34;;;;;;;3.40;2.00;;;10.50;99.90;;;;;;5030952;28;20675;-52
2022/04/13 02:30:04;;;;;;;3.00;2.20;;;10.50;99.90;;;;;;5030710;28;20217;-52
2022/04/13 02:32:32;;;;;;;2.80;1.93;;;10.50;99.90;;;;;;5030561;28;20280;-52
2022/04/13 02:35:00;;;;;;;3.50;1.90;;;10.50;99.90;;;;;;5031085;28;20218;-52
2022/04/13 02:37:28;;;;;;;2.13;1.93;;;10.50;99.90;;;;;;5030771;28;20207;-52
2022/04/13 02:39:57;;;;;;;2.20;1.73;;;10.50;99.90;;;;;;5031450;28;20206;-51
2022/04/13 02:42:25;;;;;;;3.33;2.13;;;10.50;99.90;;;;;;5030345;28;20272;-52
2022/04/13 02:44:53;;;;;;;2.87;2.27;;;10.50;99.90;;;;;;5039108;28;20259;-52
2022/04/13 02:47:22;;;;;;;3.60;1.90;;;10.50;99.90;;;;;;5051197;28;20287;-52
2022/04/13 02:49:50;;;;;;;2.97;1.90;;;10.50;99.90;;;;;;5050862;28;20827;-51
2022/04/13 02:52:19;;;;;;;4.27;2.00;;;10.50;99.90;;;;;;5049758;28;20279;-52
2022/04/13 02:54:47;;;;;;;4.07;1.90;;;10.60;99.90;;;;;;5050688;28;20267;-52
2022/04/13 02:57:15;;;;;;;2.80;2.07;;;10.60;99.90;;;;;;5051136;28;20213;-52
2022/04/13 02:59:46;;;;;;;3.20;2.10;;;10.60;99.90;;;;;;5051003;28;20271;-51
2022/04/13 03:02:15;;;;;;;3.87;2.13;;;10.60;99.90;;;;;;5050526;28;20229;-52
2022/04/13 03:04:46;;;;;;;2.47;2.20;;;10.70;99.90;;;;;;5050611;28;20241;-52
2022/04/13 03:07:16;;;;;;;3.70;2.10;;;10.70;99.90;;;;;;5050244;28;20233;-51
2022/04/13 03:09:45;;;;;;;3.80;2.10;;;10.80;99.90;;;;;;5051008;28;20324;-52
2022/04/13 03:12:14;;;;;;;2.10;1.90;;;10.80;99.90;;;;;;5049908;28;20701;-52
2022/04/13 03:14:42;;;;;;;3.13;1.97;;;10.70;99.90;;;;;;5049584;28;20259;-52
2022/04/13 03:17:10;;;;;;;2.77;2.20;;;10.70;99.90;;;;;;5049997;28;20205;-52
2022/04/13 03:19:39;;;;;;;4.67;1.87;;;10.70;99.90;;;;;;5049339;28;20736;-51
2022/04/13 03:22:08;;;;;;;3.83;2.10;;;10.70;99.90;;;;;;5049102;28;20287;-52
2022/04/13 03:24:42;;;;;;;3.27;1.90;;;10.70;99.90;;;;;;5050828;28;20213;-52
2022/04/13 03:27:10;;;;;;;5.30;2.00;;;10.60;99.90;;;;;;5050234;28;20229;-53
2022/04/13 03:29:38;;;;;;;4.23;1.80;;;10.70;99.90;;;;;;5050707;28;20259;-52
2022/04/13 03:32:08;;;;;;;3.00;2.37;;;10.60;99.90;;;;;;5049823;28;20233;-52
2022/04/13 03:34:36;;;;;;;3.47;1.93;;;10.60;99.90;;;;;;5050160;28;20701;-52
2022/04/13 03:37:05;;;;;;;2.83;2.00;;;10.70;99.90;;;;;;5050703;28;20206;-52
2022/04/13 03:39:34;;;;;;;2.57;1.90;;;10.70;99.90;;;;;;5050492;28;20206;-52
2022/04/13 03:42:03;;;;;;;3.03;2.03;;;10.70;99.90;;;;;;5049791;28;20263;-51
2022/04/13 03:44:31;;;;;;;4.90;2.10;;;10.70;99.90;;;;;;5044887;28;20324;-52
2022/04/13 03:47:00;;;;;;;2.33;2.00;;;10.70;99.90;;;;;;5034068;28;20694;-52
2022/04/13 03:49:28;;;;;;;3.80;2.00;;;10.70;99.90;;;;;;5033747;28;20679;-52
2022/04/13 03:51:56;;;;;;;2.20;1.80;;;10.70;99.90;;;;;;5032351;28;20651;-51
2022/04/13 03:54:24;;;;;;;2.40;1.90;;;10.70;99.90;;;;;;5034227;28;20202;-52
2022/04/13 03:56:54;;;;;;;2.67;1.77;;;10.70;99.90;;;;;;5033740;28;20217;-52
2022/04/13 03:59:23;;;;;;;3.53;2.10;;;10.70;99.90;;;;;;5038586;28;20201;-52
2022/04/13 04:01:51;;;;;;;2.97;2.00;;;10.80;99.90;;;;;;5053462;28;20221;-51
2022/04/13 04:04:20;;;;;;;4.63;2.43;;;10.80;99.90;;;;;;5053708;28;20738;-51
2022/04/13 04:06:48;;;;;;;2.40;1.90;;;10.80;99.90;;;;;;5053612;28;20205;-52
2022/04/13 04:09:16;;;;;;;5.10;2.10;;;10.80;99.90;;;;;;5053624;28;20259;-52
2022/04/13 04:11:44;;;;;;;3.20;1.93;;;10.80;99.90;;;;;;5053419;28;20248;-52
2022/04/13 04:14:14;;;;;;;3.83;2.10;;;10.80;99.90;;;;;;5053365;28;20205;-52
2022/04/13 04:16:42;;;;;;;2.60;2.33;;;10.80;99.90;;;;;;5053496;28;20235;-52
2022/04/13 04:19:10;;;;;;;3.90;2.30;;;10.80;99.90;;;;;;5053220;28;20666;-52
2022/04/13 04:21:38;;;;;;;3.67;2.40;;;10.70;99.90;;;;;;5053044;28;20229;-52
2022/04/13 04:24:07;;;;;;;4.13;2.17;;;10.60;99.90;;;;;;5052953;28;20209;-50
2022/04/13 04:26:36;;;;;;;5.57;2.10;;;10.60;99.90;;;;;;5053332;28;20202;-51
2022/04/13 04:29:04;;;;;;;3.00;1.93;;;10.50;99.90;;;;;;5053076;28;20225;-51
2022/04/13 04:31:52;;;;;;;2.67;2.27;;;10.40;99.90;;;;;;5053038;28;20225;-52
2022/04/13 04:34:23;;;;;;;2.50;2.10;;;10.40;99.90;;;;;;5052809;28;20271;-52
2022/04/13 04:36:51;;;;;;;3.63;2.20;;;10.40;99.90;;;;;;5053078;28;20205;-51
2022/04/13 04:39:20;;;;;;;4.70;2.00;;;10.30;99.90;;;;;;5053191;28;20252;-52
2022/04/13 04:41:48;;;;;;;3.63;2.10;;;10.30;99.90;;;;;;5052223;28;20714;-51
2022/04/13 04:44:16;;;;;;;5.80;2.40;;;10.30;99.90;;;;;;5053118;28;20213;-51
2022/04/13 04:46:45;;;;;;;4.33;2.07;;;10.30;99.90;;;;;;5052734;28;20205;-52
2022/04/13 04:49:14;;;;;;;2.33;1.87;;;10.30;99.90;;;;;;5052775;28;20225;-52
2022/04/13 04:51:42;;;;;;;3.03;2.30;;;10.30;99.90;;;;;;5050897;28;20714;-52
2022/04/13 04:54:10;;;;;;;3.87;2.30;;;10.30;99.90;;;;;;5052695;28;20213;-52
2022/04/13 04:56:38;;;;;;;3.33;2.20;;;10.40;99.90;;;;;;5052689;28;20210;-52
2022/04/13 04:59:07;;;;;;;5.07;2.40;;;10.40;99.90;;;;;;5052958;28;20256;-52
2022/04/13 05:01:35;;;;;;;6.73;2.30;;;10.50;99.90;;;;;;5051990;28;20722;-51
2022/04/13 05:04:05;;;;;;;4.63;2.17;;;10.50;99.90;;;;;;5052072;28;20213;-51
2022/04/13 05:06:33;;;;;;;3.43;2.40;;;10.50;99.90;;;;;;5052199;28;20657;-51
2022/04/13 05:09:01;;;;;;;4.30;2.03;;;10.60;99.90;;;;;;5052216;28;20254;-51
2022/04/13 05:11:29;;;;;;;4.00;2.43;;;10.60;99.90;;;;;;5052176;28;20275;-50
2022/04/13 05:13:57;;;;;;;5.00;2.97;;;10.50;99.90;;;;;;5051695;28;20209;-51
2022/04/13 05:16:25;;;;;;;4.87;2.90;;;10.50;99.90;;;;;;5052325;28;20694;-52
2022/04/13 05:18:54;;;;;;;3.60;2.50;;;10.60;99.90;;;;;;5052619;28;20266;-52
2022/04/13 05:21:23;;;;;;;3.47;2.30;;;10.60;99.90;;;;;;5051485;28;20229;-52
2022/04/13 05:23:51;;;;;;;4.97;2.63;;;10.70;99.90;;;;;;5051499;28;20627;-52
2022/04/13 05:26:19;;;;;;;4.80;2.50;;;10.70;99.90;;;;;;5052237;28;20209;-51
2022/04/13 05:28:48;;;;;;;4.63;2.73;;;10.80;99.90;;;;;;5051878;28;20668;-51
2022/04/13 05:31:16;;;;;;;5.03;3.20;;;10.80;99.90;;;;;;5051685;28;20213;-52
2022/04/13 05:33:45;;;;;;;5.10;3.00;;;10.80;99.90;;;;;;5042011;28;20303;-51
2022/04/13 05:36:13;;;;;;;2.43;2.23;;;10.90;99.90;;;;;;5036419;28;20217;-52
2022/04/13 05:38:42;;;;;;;4.97;2.40;;;11.00;99.90;;;;;;5051125;28;20624;-51
2022/04/13 05:41:10;;;;;;;5.03;2.20;;;11.00;99.90;;;;;;5050926;28;20205;-51
2022/04/13 05:43:39;;;;;;;7.10;3.00;;;11.00;99.90;;;;;;5050537;28;20685;-51
2022/04/13 05:46:07;;;;;;;6.03;2.73;;;11.20;99.90;;;;;;5051638;28;20193;-51
2022/04/13 05:48:35;;;;;;;5.53;2.50;;;11.30;99.90;;;;;;5051582;28;20312;-51
2022/04/13 05:51:03;;;;;;;2.90;2.30;;;11.50;99.90;;;;;;5051246;28;20871;-51
2022/04/13 05:53:31;;;;;;;4.37;2.80;;;11.60;99.90;;;;;;5050488;28;20205;-51
2022/04/13 05:56:01;;;;;;;4.93;2.90;;;11.70;99.90;;;;;;5051632;28;20228;-51
2022/04/13 05:58:29;;;;;;;3.67;2.50;;;11.80;99.90;;;;;;5051671;28;20205;-51
2022/04/13 06:00:57;;;;;;;5.37;2.60;;;11.80;99.90;;;;;;5050882;28;20206;-51
2022/04/13 06:03:25;;;;;;;3.77;2.67;;;11.90;99.90;;;;;;5050224;28;20679;-51
2022/04/13 06:06:11;;;;;;;2.77;2.13;;;12.00;99.90;;;;;;5051201;28;20194;-51
2022/04/13 06:08:39;;;;;;;2.97;2.23;;;12.10;99.90;;;;;;5050681;28;20217;-50
2022/04/13 06:11:08;;;;;;;4.80;2.57;;;12.10;99.90;;;;;;5050988;28;20267;-51
2022/04/13 06:13:36;;;;;;;5.43;2.93;;;12.10;99.90;;;;;;5050879;28;20202;-51
2022/04/13 06:16:07;;;;;;;6.37;2.53;;;12.00;99.90;;;;;;5051179;28;20741;-51
2022/04/13 06:18:35;;;;;;;3.33;2.10;;;12.00;99.90;;;;;;5050932;28;20202;-51
2022/04/13 06:21:03;;;;;;;3.07;2.17;;;12.10;99.90;;;;;;5041314;28;20198;-51
2022/04/13 06:23:31;;;;;;;3.57;2.30;;;12.10;99.90;;;;;;5030800;28;20210;-51
2022/04/13 06:25:59;;;;;;;3.13;2.40;;;12.10;99.90;;;;;;5031245;28;20215;-51
2022/04/13 06:28:30;;;;;;;3.73;2.20;;;12.10;99.90;;;;;;5030772;28;20226;-51
2022/04/13 06:30:58;;;;;;;2.73;2.07;;;12.20;99.90;;;;;;5031119;28;20202;-51
2022/04/13 06:33:26;;;;;;;5.60;2.10;;;12.30;99.90;;;;;;5030622;28;20218;-51
2022/04/13 06:35:54;;;;;;;2.60;2.23;;;12.40;99.90;;;;;;5031078;28;20210;-51
2022/04/13 06:38:22;;;;;;;5.07;2.50;;;12.50;99.90;;;;;;5031217;28;20206;-52
2022/04/13 06:40:50;;;;;;;3.50;2.33;;;12.60;99.90;;;;;;5033183;28;20210;-52
2022/04/13 06:43:19;;;;;;;3.30;2.40;;;12.70;99.90;;;;;;5030110;28;20234;-52
2022/04/13 06:45:48;;;;;;;2.20;2.00;;;12.90;99.90;;;;;;5031031;28;20194;-52
2022/04/13 06:48:16;;;;;;;3.57;2.00;;;13.00;99.90;;;;;;5030861;28;20240;-51
2022/04/13 06:50:44;;;;;;;3.10;2.30;;;13.10;99.90;;;;;;5031341;28;20206;-51
2022/04/13 06:53:14;;;;;;;4.83;2.40;;;13.10;99.90;;;;;;5030468;28;20230;-50
2022/04/13 06:55:43;;;;;;;2.97;2.43;;;13.20;99.90;;;;;;5030635;28;20206;-51
2022/04/13 06:58:11;;;;;;;2.87;2.40;;;13.30;99.90;;;;;;5039150;28;20216;-51
2022/04/13 07:00:39;;;;;;;2.90;2.47;;;13.40;99.90;;;;;;5050223;28;20202;-52
2022/04/13 07:03:09;;;;;;;4.43;2.83;;;13.50;99.90;;;;;;5049711;28;20217;-52
2022/04/13 07:05:39;;;;;;;3.63;2.90;;;13.70;99.90;;;;;;5050782;28;20671;-53
2022/04/13 07:08:08;;;;;;;4.73;2.80;;;13.70;99.90;;;;;;5050641;28;20205;-52
2022/04/13 07:10:36;;;;;;;3.03;2.73;;;13.80;99.90;;;;;;5050083;28;20706;-52
2022/04/13 07:13:11;;;;;;;3.97;2.73;;;13.90;99.90;;;;;;5049743;28;20229;-52
2022/04/13 07:15:40;;;;;;;4.20;3.00;;;14.00;99.90;;;;;;5050313;28;20244;-52
2022/04/13 07:18:10;;;;;;;3.73;2.60;;;14.20;99.90;;;;;;5050470;28;20257;-53
2022/04/13 07:20:38;;;;;;;3.73;2.83;;;14.30;99.90;;;;;;5052597;28;20197;-52
2022/04/13 07:23:06;;;;;;;6.23;3.00;;;14.50;99.90;;;;;;5053745;28;20291;-52
2022/04/13 07:25:35;;;;;;;6.30;3.20;;;14.60;99.90;;;;;;5053868;28;20237;-52
2022/04/13 07:28:03;;;;;;;3.10;2.73;;;14.60;99.90;;;;;;5054299;28;20252;-52
2022/04/13 07:30:31;;;;;;;3.47;2.70;;;14.70;99.90;;;;;;5044132;28;20214;-51
2022/04/13 07:33:01;;;;;;;3.70;3.30;;;14.70;99.90;;;;;;5033250;28;20687;-51
2022/04/13 07:35:32;;;;;;;4.03;2.88;;;14.80;99.90;;;;;;5034449;28;20273;-51
2022/04/13 07:38:00;;;;;;;3.53;3.10;;;15.00;99.90;;;;;;5033267;28;20264;-52
2022/04/13 07:40:28;;;;;;;3.45;2.80;;;15.30;99.90;;;;;;5034150;28;20210;-52
2022/04/13 07:42:57;;;;;;;3.08;2.63;;;15.70;99.90;;;;;;5031708;28;20226;-52
2022/04/13 07:45:25;;;;;;;3.85;2.60;;;16.00;99.90;;;;;;5047393;28;20574;-51
2022/04/13 07:47:53;;;;;;;3.47;2.70;;;16.20;99.90;;;;;;5053662;28;20671;-52
2022/04/13 07:50:21;;;;;;;3.47;2.35;;;16.40;99.90;;;;;;5053455;28;20355;-51
2022/04/13 07:52:51;;;;;;;2.88;2.67;;;16.60;99.90;;;;;;5053118;28;20225;-52
2022/04/13 07:55:19;;;;;;;2.83;2.47;;;16.70;99.90;;;;;;5053612;28;20205;-51
2022/04/13 07:57:47;;;;;;;4.80;2.80;;;16.80;99.90;;;;;;5053718;28;20210;-52
2022/04/13 08:00:16;;;;;;;2.97;2.65;;;16.90;99.90;;;;;;5052967;28;20205;-51
2022/04/13 08:02:45;;;;;;;6.07;2.83;;;17.00;99.90;;;;;;5052969;28;20275;-52
2022/04/13 08:05:14;;;;;;;3.97;3.05;;;17.10;99.90;;;;;;5053279;28;20214;-51
2022/04/13 08:07:43;;;;;;;5.25;3.20;;;17.10;99.90;;;;;;5053904;28;20209;-53
2022/04/13 08:10:13;;;;;;;4.45;3.05;;;17.20;99.90;;;;;;5053086;28;20221;-52
2022/04/13 08:12:42;;;;;;;3.67;2.75;;;17.30;99.90;;;;;;5052857;28;20642;-52
2022/04/13 08:15:11;;;;;;;5.18;2.97;;;17.40;99.90;;;;;;5053088;28;20236;-52
2022/04/13 08:17:40;;;;;;;4.25;3.47;;;17.50;99.90;;;;;;5053336;28;20282;-52
2022/04/13 08:20:12;;;;;;;6.25;3.08;;;17.50;99.90;;;;;;5052646;28;20202;-52
2022/04/13 08:22:41;;;;;;;4.55;3.10;;;17.50;99.90;;;;;;5032604;28;20269;-52
2022/04/13 08:25:10;;;;;;;5.78;3.88;;;17.40;99.90;;;;;;5033303;28;20202;-52
2022/04/13 08:27:59;;;;;;;7.68;4.07;;;17.60;99.90;;;;;;5032931;28;20206;-52
2022/04/13 08:30:27;;;;;;;10.45;4.60;;;17.70;99.90;;;;;;5032225;28;20695;-52
2022/04/13 08:32:55;;;;;;;7.20;4.65;;;17.90;99.90;;;;;;5030930;28;20637;-52
2022/04/13 08:35:24;;;;;;;8.43;4.10;;;18.00;99.90;;;;;;5032623;28;20245;-52
2022/04/13 08:37:52;;;;;;;4.68;3.72;;;18.00;99.90;;;;;;5032785;28;20671;-52
2022/04/13 08:40:21;;;;;;;6.97;4.50;;;18.00;99.90;;;;;;5034523;28;20203;-53
2022/04/13 08:42:57;;;;;;;7.20;4.60;;;18.00;99.10;;;;;;5052399;28;20237;-53
2022/04/13 08:45:39;;;;;;;6.03;4.20;;;18.10;99.50;;;;;;5052868;28;20209;-53
2022/04/13 08:48:12;;;;;;;7.50;4.50;;;18.10;98.80;;;;;;5052887;28;20213;-52
2022/04/13 08:50:46;;;;;;;7.70;4.93;;;18.30;99.80;;;;;;5040740;28;20367;-53
2022/04/13 08:53:16;;;;;;;6.22;4.07;;;18.30;98.90;;;;;;5032183;28;20249;-52
2022/04/13 08:55:52;;;;;;;6.60;4.38;;;18.40;99.30;;;;;;5032444;28;20210;-52
2022/04/13 08:58:29;;;;;;;7.50;4.30;;;18.50;99.90;;;;;;5033167;28;20202;-52
2022/04/13 09:01:02;;;;;;;5.65;4.35;;;18.50;99.00;;;;;;5049823;28;20754;-52
2022/04/13 09:03:38;;;;;;;7.40;4.80;;;18.60;99.00;;;;;;5052183;28;20264;-52
2022/04/13 09:06:09;;;;;;;7.03;4.75;;;18.50;98.80;;;;;;5044068;28;20228;-52
2022/04/13 09:08:47;;;;;;;7.03;5.13;;;18.60;99.00;;;;;;5035395;28;20505;-52
2022/04/13 09:11:17;;;;;;;6.93;4.75;;;18.70;98.80;;;;;;5051210;28;20225;-52
2022/04/13 09:13:46;;;;;;;8.60;5.22;;;18.70;98.90;;;;;;5050143;28;20213;-52
2022/04/13 09:16:16;;;;;;;5.97;4.43;;;18.80;99.60;;;;;;5039825;28;20758;-52
2022/04/13 09:18:45;;;;;;;6.82;4.63;;;18.80;99.90;;;;;;5032391;28;20218;-52
2022/04/13 09:21:17;;;;;;;8.60;5.32;;;18.80;98.70;;;;;;5040801;28;20202;-52
2022/04/13 09:23:45;;;;;;;7.68;5.15;;;18.80;99.70;;;;;;5050192;28;20205;-52
2022/04/13 09:26:15;;;;;;;9.52;5.93;;;18.90;99.70;;;;;;5051035;28;20205;-52
2022/04/13 09:28:44;;;;;;;10.13;6.30;;;19.00;99.90;;;;;;5050965;28;20202;-52
2022/04/13 09:31:19;;;;;;;7.13;5.28;;;19.10;99.90;;;;;;5050961;28;20222;-51
2022/04/13 09:34:02;;;;;;;8.13;5.35;;;19.10;99.90;;;;;;5050592;28;20311;-52
2022/04/13 09:36:32;;;;;;;9.50;6.07;;;19.20;99.90;;;;;;5042852;28;20445;-52
2022/04/13 09:39:01;;;;;;;9.07;5.65;;;19.30;99.90;;;;;;5031163;28;20218;-52
2022/04/13 09:41:37;;;;;;;7.40;5.18;;;19.30;99.90;;;;;;5041872;28;20264;-52
2022/04/13 09:44:13;;;;;;;8.70;5.82;;;19.30;99.90;;;;;;5049782;28;20206;-51
2022/04/13 09:46:43;;;;;;;8.20;5.95;;;19.30;99.90;;;;;;5050723;28;20213;-52
2022/04/13 09:49:14;;;;;;;8.43;5.20;;;19.30;99.90;;;;;;5050928;28;20252;-51
2022/04/13 09:51:48;;;;;;;8.52;5.32;;;19.30;99.90;;;;;;5050531;28;20225;-52
2022/04/13 09:54:25;;;;;;;10.40;6.57;;;19.40;99.90;;;;;;5051089;28;20658;-52
2022/04/13 09:56:53;;;;;;;10.30;7.10;;;19.40;99.90;;;;;;5043554;28;20212;-51
2022/04/13 09:59:25;;;;;;;10.88;6.82;;;19.50;99.90;;;;;;5051111;28;20248;-51
2022/04/13 10:01:54;;;;;;;12.05;7.38;;;19.50;99.90;;;;;;5030367;28;20226;-52
2022/04/13 10:04:28;;;;;;;10.00;6.97;;;19.60;99.90;;;;;;5032170;28;20220;-52
2022/04/13 10:07:13;;;;;;;11.90;6.90;;;19.60;99.90;;;;;;5031500;28;20260;-52
2022/04/13 10:09:41;;;;;;;11.40;7.63;;;19.70;99.90;;;;;;5044346;28;20260;-51
2022/04/13 10:12:10;;;;;;;10.85;6.63;;;19.70;99.90;;;;;;5050568;28;20609;-52
2022/04/13 10:14:39;;;;;;;10.85;7.38;;;19.80;99.90;;;;;;5051100;28;20208;-51
2022/04/13 10:17:08;;;;;;;9.60;6.43;;;19.90;99.90;;;;;;5051402;28;20615;-52
2022/04/13 10:19:38;;;;;;;9.73;6.65;;;20.00;99.90;;;;;;5050235;28;20728;-52
2022/04/13 10:22:06;;;;;;;9.75;6.57;;;20.00;99.90;;;;;;5050100;28;20222;-53
2022/04/13 10:24:37;;;;;;;9.48;6.03;;;20.00;99.90;;;;;;5050811;28;20202;-53
2022/04/13 10:27:07;;;;;;;9.10;5.78;;;20.10;99.90;;;;;;5050408;28;20259;-53
2022/04/13 10:29:37;;;;;;;8.85;5.85;;;20.00;99.90;;;;;;5051484;28;20197;-52
2022/04/13 10:32:06;;;;;;;9.10;5.85;;;20.10;99.90;;;;;;5050507;28;20230;-52
2022/04/13 10:34:37;;;;;;;7.47;5.45;;;20.10;99.90;;;;;;5050819;28;20214;-52
2022/04/13 10:37:06;;;;;;;9.30;5.63;;;20.30;99.90;;;;;;5049737;28;20209;-52
2022/04/13 10:39:35;;;;;;;7.07;5.55;;;20.30;99.90;;;;;;5050782;28;20288;-53
2022/04/13 10:42:06;;;;;;;7.22;5.72;;;20.40;99.90;;;;;;5050208;28;20732;-53
2022/04/13 10:44:36;;;;;;;10.65;5.50;;;20.50;99.90;;;;;;5050378;28;20259;-52
2022/04/13 10:47:07;;;;;;;10.77;5.90;;;20.50;99.90;;;;;;5044208;28;20226;-52
2022/04/13 10:49:56;;;;;;;7.38;5.32;;;20.50;99.90;;;;;;5029960;28;20679;-52
2022/04/13 10:52:29;;;;;;;8.65;6.00;;;20.50;99.90;;;;;;5029106;28;20245;-52
2022/04/13 10:55:03;;;;;;;9.13;5.72;;;20.50;99.90;;;;;;5033272;28;20260;-53
2022/04/13 10:57:37;;;;;;;8.70;5.18;;;20.50;99.80;;;;;;5034091;28;20734;-53
2022/04/13 11:00:07;;;;;;;8.07;5.15;;;20.60;99.90;;;;;;5044013;28;20555;-53
2022/04/13 11:02:43;;;;;;;9.90;5.10;;;20.60;99.90;;;;;;5053421;28;20225;-53
2022/04/13 11:05:13;;;;;;;10.13;5.75;;;20.70;99.90;;;;;;5052700;28;20198;-52
2022/04/13 11:07:43;;;;;;;7.95;4.90;;;20.80;99.90;;;;;;5054040;28;20209;-51
2022/04/13 11:10:16;;;;;;;8.00;5.32;;;20.70;99.90;;;;;;5053665;28;20248;-51
2022/04/13 11:12:45;;;;;;;8.02;5.05;;;20.70;99.90;;;;;;5052336;28;20233;-51
2022/04/13 11:15:18;;;;;;;7.38;4.85;;;20.90;99.90;;;;;;5053205;28;20205;-51
2022/04/13 11:17:46;;;;;;;7.47;4.90;;;20.90;99.90;;;;;;5061119;28;20633;-51
2022/04/13 11:20:23;;;;;;;8.10;5.45;;;21.00;99.90;;;;;;5054999;28;20201;-50
2022/04/13 11:23:12;;;;;;;9.38;4.90;;;21.20;99.40;;;;;;5052905;28;20225;-51
2022/04/13 11:25:51;;;;;;;10.10;5.13;;;21.30;99.90;;;;;;5041505;28;20678;-52
2022/04/13 11:28:28;;;;;;;9.40;4.90;;;21.40;99.20;;;;;;5034455;28;20788;-50
2022/04/13 11:31:05;;;;;;;9.23;5.03;;;21.40;99.90;;;;;;5033465;28;20206;-52
2022/04/13 11:33:51;;;;;;;7.72;4.43;;;21.40;99.20;;;;;;5033384;28;20233;-51
2022/04/13 11:36:23;;;;;;;7.72;4.78;;;21.50;99.90;;;;;;5033796;28;20263;-51
2022/04/13 11:39:13;;;;;;;7.53;4.60;;;21.60;99.90;;;;;;5034350;28;20229;-51
2022/04/13 11:41:51;;;;;;;8.98;4.57;;;21.50;99.90;;;;;;5033938;28;20828;-52
2022/04/13 11:44:20;;;;;;;7.55;4.28;;;21.50;99.00;;;;;;5034853;28;20244;-51
2022/04/13 11:46:48;;;;;;;7.65;4.05;;;21.60;99.90;;;;;;5053735;28;20202;-52
2022/04/13 11:49:16;;;;;;;6.05;4.20;;;21.60;99.90;;;;;;5047834;28;20202;-52
2022/04/13 11:51:47;;;;;;;6.00;4.68;;;21.60;99.30;;;;;;5053000;28;20634;-53
2022/04/13 11:54:15;;;;;;;8.75;4.45;;;21.70;99.90;;;;;;5053515;28;20670;-52
2022/04/13 11:56:50;;;;;;;6.22;3.65;;;21.60;98.60;;;;;;5053409;28;20259;-53
2022/04/13 11:59:45;;;;;;;10.82;3.72;;;21.50;97.10;;;;;;5053572;28;20201;-52
2022/04/13 12:02:15;;;;;;;5.05;3.58;;;21.60;97.30;;;;;;5052992;28;20272;-52
2022/04/13 12:04:46;;;;;;;6.18;3.33;;;21.50;98.50;;;;;;5053239;28;20209;-52
2022/04/13 12:07:16;;;;;;;7.03;3.20;;;21.60;98.20;;;;;;5039002;28;20253;-52
2022/04/13 12:09:45;;;;;;;7.65;4.18;;;21.60;97.00;;;;;;5053160;28;20189;-52
2022/04/13 12:12:17;;;;;;;4.38;3.63;;;21.60;98.60;;;;;;5052734;28;20229;-52
2022/04/13 12:14:55;;;;;;;9.55;3.50;;;21.70;99.10;;;;;;5046877;28;20267;-52
2022/04/13 12:17:24;;;;;;;7.80;3.60;;;21.70;97.40;;;;;;5033018;28;20614;-52
2022/04/13 12:19:52;;;;;;;7.40;4.45;;;21.60;97.70;;;;;;5032361;28;20210;-51
2022/04/13 12:22:22;;;;;;;6.93;3.58;;;21.60;98.20;;;;;;5045880;28;20719;-52
2022/04/13 12:24:57;;;;;;;6.05;3.75;;;21.60;98.10;;;;;;5052377;28;20193;-52
2022/04/13 12:27:25;;;;;;;6.88;3.40;;;21.60;99.30;;;;;;5052897;28;20214;-52
2022/04/13 12:30:09;;;;;;;8.88;3.60;;;21.50;97.80;;;;;;5052360;28;20271;-52
2022/04/13 12:32:44;;;;;;;5.90;3.00;;;21.60;97.20;;;;;;5051940;28;20233;-52
2022/04/13 12:35:13;;;;;;;4.90;3.10;;;21.60;96.80;;;;;;5051770;28;20220;-52
2022/04/13 12:37:51;;;;;;;5.38;3.10;;;21.60;97.00;;;;;;5052581;28;20205;-52
2022/04/13 12:40:22;;;;;;;5.13;3.00;;;21.70;98.00;;;;;;5051552;28;20194;-52
2022/04/13 12:42:51;;;;;;;4.85;2.70;;;21.70;97.90;;;;;;5051523;28;20626;-52
2022/04/13 12:45:19;;;;;;;9.20;2.90;;;21.70;96.60;;;;;;5051007;28;20584;-52
2022/04/13 12:47:48;;;;;;;8.63;2.58;;;21.70;96.90;;;;;;5060767;28;20209;-52
2022/04/13 12:50:17;;;;;;;4.85;2.50;;;21.70;95.80;;;;;;5052283;28;20216;-52
2022/04/13 12:52:59;;;;;;;7.47;2.58;;;21.70;95.60;;;;;;5052202;28;20229;-52
2022/04/13 12:55:28;;;;;;;6.55;3.13;;;21.70;96.00;;;;;;5052452;28;20224;-52
2022/04/13 12:57:59;;;;;;;5.45;2.88;;;21.80;96.20;;;;;;5052652;28;20214;-52
2022/04/13 13:00:46;;;;;;;7.97;2.35;;;21.80;96.70;;;;;;5052028;28;20197;-52